WetterOnline ( https://www.wetteronline.de )

Wetter aktuell Döhlau

Aktuelles Wetter: Plauen (389m)

6-stündlich | Neueste Meldungen
Ortszeit Temperatur Wetter
Do, 30.05. 8:00 13.7° C Regen
Do, 30.05. 2:00 14.0° C bedeckt
Mi, 29.05. 20:00 17.6° C bewölkt
Mi, 29.05. 14:00 19.1° C bewölkt
Mi, 29.05. 8:00 12.1° C bewölkt
Mi, 29.05. 2:00 6.9° C wolkig
Di, 28.05. 20:00 16.5° C wolkenlos
Di, 28.05. 14:00 15.9° C bedeckt
Ortszeit Temperatur Wetter
Do, 30.05. 8:10 13.8° C bedeckt
Do, 30.05. 8:00 13.7° C Regen
Do, 30.05. 7:50 13.7° C bewölkt
Do, 30.05. 7:40 13.6° C leichter Regen
Do, 30.05. 7:30 13.3° C leichter Regen
Do, 30.05. 7:20 13.3° C leichter Regen
Do, 30.05. 7:00 12.9° C leichter Regen
Do, 30.05. 6:30 12.8° C leichter Regen
Do, 30.05. 6:00 12.6° C leichter Regen
Do, 30.05. 5:30 12.6° C leichter Regen
Ortszeit Relative Feuchte Sichtweite
Do, 30.05. 8:00 91% 35 km
Do, 30.05. 2:00 81% 65 km
Mi, 29.05. 20:00 60% 60 km
Mi, 29.05. 14:00 52% 60 km
Mi, 29.05. 8:00 70% 65 km
Mi, 29.05. 2:00 93% 50 km
Di, 28.05. 20:00 48% >70 km
Di, 28.05. 14:00 63% 55 km
Ortszeit Relative Feuchte Sichtweite
Do, 30.05. 8:10 91% -
Do, 30.05. 8:00 91% 35 km
Do, 30.05. 7:50 91% -
Do, 30.05. 7:40 92% -
Do, 30.05. 7:30 92% 21 km
Do, 30.05. 7:20 92% -
Do, 30.05. 7:00 95% 14 km
Do, 30.05. 6:30 96% 11 km
Do, 30.05. 6:00 96% 15 km
Do, 30.05. 5:30 96% 15 km
Ortszeit Niederschlagsmenge Niederschlagsart
Do, 30.05. 8:00 4 l/m2 in 12 Std. Regen
Do, 30.05. 2:00 0.0 l/m2 in 6 Std. -
Mi, 29.05. 20:00 0.1 l/m2 in 12 Std. Regen
Mi, 29.05. 14:00 0.1 l/m2 in 6 Std. Regen
Mi, 29.05. 8:00 0.0 l/m2 in 12 Std. -
Mi, 29.05. 2:00 0.0 l/m2 in 6 Std. -
Di, 28.05. 20:00 1 l/m2 in 12 Std. -
Di, 28.05. 14:00 1 l/m2 in 6 Std. Regen
Ortszeit Niederschlagsmenge Niederschlagsart
Do, 30.05. 8:10 keine Meldung -
Do, 30.05. 8:00 0.1 l/m2 in 1 Std. Regen
Do, 30.05. 7:50 keine Meldung -
Do, 30.05. 7:40 keine Meldung -
Do, 30.05. 7:30 0.1 l/m2 in 30 Min -
Do, 30.05. 7:20 keine Meldung -
Do, 30.05. 7:00 0.6 l/m2 in 1 Std. Regen
Do, 30.05. 6:30 0.1 l/m2 in 30 Min -
Do, 30.05. 6:00 0.7 l/m2 in 1 Std. Regen
Do, 30.05. 5:30 0.5 l/m2 in 30 Min -
Ortszeit Stärke Spitze Richtung
km/h Bft. km/h Grad Sektor
Do, 30.05. 8:00 6 1 15 160° S
Do, 30.05. 2:00 4 1 25 190° S
Mi, 29.05. 20:00 14 3 29 210° SW
Mi, 29.05. 14:00 11 2 36 170° S
Mi, 29.05. 8:00 9 2 24 160° S
Mi, 29.05. 2:00 0 0 18 - -
Di, 28.05. 20:00 9 2 30 220° SW
Di, 28.05. 14:00 11 2 22 230° SW
Ortszeit Stärke Spitze Richtung
km/h Bft. km/h Grad Sektor
Do, 30.05. 8:10 7 2 - 160° S
Do, 30.05. 8:00 6 1 15 160° S
Do, 30.05. 7:50 6 1 - 160° S
Do, 30.05. 7:40 6 1 - 160° S
Do, 30.05. 7:30 7 2 15 170° S
Do, 30.05. 7:20 7 2 - 170° S
Do, 30.05. 7:00 4 1 11 190° S
Do, 30.05. 6:30 6 1 9 180° S
Do, 30.05. 6:00 4 1 14 250° W
Do, 30.05. 5:30 6 1 11 120° SO
Ortszeit Untergrenze Bedeckung Gattung
total tief tief mittel hoch
Do, 30.05. 8:00 1260 m 8/8 7/8 - - -
Do, 30.05. 2:00 1440 m 8/8 8/8 - - -
Mi, 29.05. 20:00 2400 m 8/8 7/8 - - -
Mi, 29.05. 14:00 1500 m 8/8 7/8 - - -
Mi, 29.05. 8:00 2100 m 8/8 4/8 - - -
Mi, 29.05. 2:00 8400 m 8/8 0/8 - - -
Di, 28.05. 20:00 - 0/8 0/8 - - -
Di, 28.05. 14:00 1800 m 8/8 8/8 - - -
Ortszeit Bedeckungsgrad in Achtel und Wolkenuntergrenze
Do, 30.05. 8:10 8
Do, 30.05. 8:00 3(1260m) 7(2400m) 8(3000m)
Do, 30.05. 7:50 3(1260m) 7(2400m) 8(3000m)
Do, 30.05. 7:40 8
Do, 30.05. 7:30 1(390m) 7(2700m) 7(4200m)
Do, 30.05. 7:20 1(390m) 7(2700m) 7(4200m)
Do, 30.05. 7:00 1(1500m) 6(2100m)
Do, 30.05. 6:30 1(1110m) 6(2100m) 6(2400m)
Do, 30.05. 6:00 7(2100m) 7(2700m) 7(3600m)
Do, 30.05. 5:30 1(1800m) 6(2100m) 7(2400m)
Ortszeit Luftdruck NN (hPa) Tendenz (hPa in 3 Std.)
Do, 30.05. 8:00 1006 - 1,3
Do, 30.05. 2:00 1009 - 1,2
Mi, 29.05. 20:00 1010 - 1,6
Mi, 29.05. 14:00 1012 - 1,6
Mi, 29.05. 8:00 1016 - 1,2
Mi, 29.05. 2:00 1020 - 0,6
Di, 28.05. 20:00 1018 0,0
Di, 28.05. 14:00 1019 + 0,1
Ortszeit Luftdruck NN (hPa) Tendenz (hPa in 3 Std.)
Do, 30.05. 8:10 1006 keine Meldung
Do, 30.05. 8:00 1006 - 1,3
Do, 30.05. 7:50 1006 keine Meldung
Do, 30.05. 7:40 1006 keine Meldung
Do, 30.05. 7:30 1006 - 1,6
Do, 30.05. 7:20 1006 keine Meldung
Do, 30.05. 7:00 1006 - 1,6
Do, 30.05. 6:30 1007 - 1,6
Do, 30.05. 6:00 1007 - 1,9
Do, 30.05. 5:30 1007 - 2,0
Ortszeit Schneehöhe (cm)
Do, 30.05. 8:00 0
Do, 30.05. 2:00 0
Mi, 29.05. 20:00 0
Mi, 29.05. 14:00 0
Mi, 29.05. 8:00 0
Mi, 29.05. 2:00 0
Di, 28.05. 20:00 0
Di, 28.05. 14:00 0
Ortszeit Schneehöhe (cm)
Do, 30.05. 8:10 -
Do, 30.05. 8:00 0
Do, 30.05. 7:50 0
Do, 30.05. 7:40 -
Do, 30.05. 7:30 0
Do, 30.05. 7:20 0
Do, 30.05. 7:00 0
Do, 30.05. 6:30 0
Do, 30.05. 6:00 0
Do, 30.05. 5:30 0
Link zu dieser Seite / Seite empfehlen

Das Wetter in ...